Time;durP1;ratioP1;P1;durP2;ratioP2;P2;SDS_P1;SDS_P2;PMS_P1;PMS_P2;Temp;Humidity;BMP_temperature;BMP_pressure;BME280_temperature;BME280_humidity;BME280_pressure;Samples;Min_cycle;Max_cycle;Signal;HPM_P1;HPM_P2
2023/02/13 00:01:36;;;;;;;2.58;2.38;;;;;;;;;;4508367;28;20156;-57
2023/02/13 00:03:46;;;;;;;2.33;2.13;;;;;;;;;;4507450;28;20121;-59
2023/02/13 00:05:56;;;;;;;2.28;2.08;;;;;;;;;;4509602;28;20133;-58
2023/02/13 00:08:06;;;;;;;2.72;2.30;;;;;;;;;;4507879;28;20053;-57
2023/02/13 00:10:17;;;;;;;2.38;2.17;;;;;;;;;;4507431;28;20033;-57
2023/02/13 00:12:27;;;;;;;2.58;2.20;;;;;;;;;;4508855;28;20052;-58
2023/02/13 00:14:38;;;;;;;2.60;2.40;;;;;;;;;;4507961;28;20056;-57
2023/02/13 00:16:48;;;;;;;2.72;2.22;;;;;;;;;;4520915;28;20038;-57
2023/02/13 00:18:59;;;;;;;2.88;2.40;;;;;;;;;;4509502;28;20039;-57
2023/02/13 00:21:10;;;;;;;2.40;2.20;;;;;;;;;;4507800;28;20111;-58
2023/02/13 00:23:20;;;;;;;2.38;2.13;;;;;;;;;;4510255;28;20208;-57
2023/02/13 00:25:31;;;;;;;2.80;2.60;;;;;;;;;;4507965;28;20047;-58
2023/02/13 00:27:41;;;;;;;2.40;2.20;;;;;;;;;;4509810;28;20037;-57
2023/02/13 00:29:51;;;;;;;2.45;2.25;;;;;;;;;;4507798;28;20096;-57
2023/02/13 00:32:03;;;;;;;2.50;2.30;;;;;;;;;;4507908;28;20304;-58
2023/02/13 00:34:13;;;;;;;2.33;2.13;;;;;;;;;;4507722;28;20052;-57
2023/02/13 00:36:24;;;;;;;2.35;2.15;;;;;;;;;;4507230;28;20033;-57
2023/02/13 00:38:35;;;;;;;2.30;2.10;;;;;;;;;;4512901;28;20084;-57
2023/02/13 00:40:45;;;;;;;2.20;2.03;;;;;;;;;;4516174;28;20423;-58
2023/02/13 00:42:55;;;;;;;2.42;2.22;;;;;;;;;;4508776;28;20064;-57
2023/02/13 00:45:06;;;;;;;2.53;2.33;;;;;;;;;;4507574;28;20038;-58
2023/02/13 00:47:16;;;;;;;2.22;2.03;;;;;;;;;;4508391;28;20064;-57
2023/02/13 00:49:27;;;;;;;2.40;2.20;;;;;;;;;;4508227;28;20057;-58
2023/02/13 00:51:37;;;;;;;2.60;2.40;;;;;;;;;;4510722;28;20041;-58
2023/02/13 00:53:47;;;;;;;2.40;2.20;;;;;;;;;;4512291;28;20045;-58
2023/02/13 00:55:59;;;;;;;2.50;2.30;;;;;;;;;;4509541;28;20047;-57
2023/02/13 00:58:09;;;;;;;2.70;2.50;;;;;;;;;;4509353;28;20044;-57
2023/02/13 01:00:20;;;;;;;2.50;2.30;;;;;;;;;;4514411;28;20069;-58
2023/02/13 01:02:34;;;;;;;2.90;2.60;;;;;;;;;;4506767;28;20120;-58
2023/02/13 01:04:45;;;;;;;2.50;2.13;;;;;;;;;;4508679;28;20044;-58
2023/02/13 01:06:55;;;;;;;2.40;2.20;;;;;;;;;;4508963;28;20052;-57
2023/02/13 01:09:05;;;;;;;2.42;2.22;;;;;;;;;;4506513;28;20030;-57
2023/02/13 01:11:17;;;;;;;2.33;2.13;;;;;;;;;;4515977;28;20045;-58
2023/02/13 01:13:28;;;;;;;2.30;2.10;;;;;;;;;;4507047;28;20586;-57
2023/02/13 01:15:39;;;;;;;2.63;2.42;;;;;;;;;;4515690;28;20502;-57
2023/02/13 01:17:51;;;;;;;2.28;2.08;;;;;;;;;;4508088;28;20448;-57
2023/02/13 01:20:02;;;;;;;2.42;2.22;;;;;;;;;;4505840;28;20137;-57
2023/02/13 01:22:12;;;;;;;1.80;1.70;;;;;;;;;;4511627;28;20048;-58
2023/02/13 01:24:24;;;;;;;2.33;2.13;;;;;;;;;;4507107;28;20033;-57
2023/02/13 01:26:35;;;;;;;1.98;1.80;;;;;;;;;;4506778;28;20044;-58
2023/02/13 01:28:45;;;;;;;2.10;1.90;;;;;;;;;;4515250;28;20520;-57
2023/02/13 01:30:56;;;;;;;2.20;2.00;;;;;;;;;;4506201;28;20042;-58
2023/02/13 01:33:09;;;;;;;2.15;1.95;;;;;;;;;;4508953;28;20042;-58
2023/02/13 01:35:20;;;;;;;1.88;1.77;;;;;;;;;;4507013;28;20049;-57
2023/02/13 01:37:30;;;;;;;2.13;1.92;;;;;;;;;;4507053;28;20041;-58
2023/02/13 01:39:41;;;;;;;2.30;1.92;;;;;;;;;;4506392;28;20358;-58
2023/02/13 01:41:52;;;;;;;2.15;1.95;;;;;;;;;;4508197;28;20905;-57
2023/02/13 01:44:02;;;;;;;2.13;1.90;;;;;;;;;;4507298;28;20033;-57
2023/02/13 01:46:15;;;;;;;2.00;1.80;;;;;;;;;;4507183;28;20033;-57
2023/02/13 01:48:26;;;;;;;2.10;1.90;;;;;;;;;;4507110;28;20550;-57
2023/02/13 01:50:38;;;;;;;2.10;1.90;;;;;;;;;;4522484;28;21467;-57
2023/02/13 01:52:53;;;;;;;2.20;2.00;;;;;;;;;;4505464;28;20529;-57
2023/02/13 01:55:04;;;;;;;2.08;1.90;;;;;;;;;;4505674;28;20726;-57
2023/02/13 01:57:17;;;;;;;2.30;2.10;;;;;;;;;;4506541;28;20326;-57
2023/02/13 01:59:29;;;;;;;2.05;1.85;;;;;;;;;;4507142;28;20037;-58
2023/02/13 02:01:41;;;;;;;2.35;2.15;;;;;;;;;;4515587;28;20832;-57
2023/02/13 02:03:56;;;;;;;2.22;2.03;;;;;;;;;;4508921;28;20032;-57
2023/02/13 02:06:09;;;;;;;2.30;2.10;;;;;;;;;;4509668;28;20044;-57
2023/02/13 02:08:20;;;;;;;1.83;1.73;;;;;;;;;;4507301;28;20048;-57
2023/02/13 02:10:36;;;;;;;2.05;1.85;;;;;;;;;;4509108;28;20030;-57
2023/02/13 02:12:51;;;;;;;2.30;2.10;;;;;;;;;;4515341;28;20858;-58
2023/02/13 02:15:03;;;;;;;2.10;1.90;;;;;;;;;;4504144;28;20100;-58
2023/02/13 02:17:16;;;;;;;1.95;1.75;;;;;;;;;;4505632;28;20574;-58
2023/02/13 02:19:36;;;;;;;2.35;1.90;;;;;;;;;;4506350;28;20050;-57
2023/02/13 02:21:47;;;;;;;2.15;1.88;;;;;;;;;;4515071;28;20030;-57
2023/02/13 02:24:12;;;;;;;2.10;1.90;;;;;;;;;;4516785;28;20128;-57
2023/02/13 02:26:28;;;;;;;2.17;1.98;;;;;;;;;;4508012;28;20030;-57
2023/02/13 02:28:51;;;;;;;2.05;1.85;;;;;;;;;;4506437;28;20045;-60
2023/02/13 02:31:05;;;;;;;2.03;1.83;;;;;;;;;;4507545;28;20045;-57
2023/02/13 02:33:26;;;;;;;2.13;1.92;;;;;;;;;;4505121;28;20089;-57
2023/02/13 02:35:45;;;;;;;2.08;1.80;;;;;;;;;;4508603;28;21240;-58
2023/02/13 02:38:14;;;;;;;2.30;2.10;;;;;;;;;;4508393;28;20117;-58
2023/02/13 02:40:27;;;;;;;2.10;1.90;;;;;;;;;;4511776;28;20041;-57
2023/02/13 02:42:44;;;;;;;2.20;2.00;;;;;;;;;;4522027;28;20041;-58
2023/02/13 02:45:04;;;;;;;2.53;1.80;;;;;;;;;;4515650;28;20568;-58
2023/02/13 02:49:58;;;;;;;2.00;1.80;;;;;;;;;;4504692;28;20782;-57
2023/02/13 02:52:17;;;;;;;1.90;1.70;;;;;;;;;;4515464;28;20627;-58
2023/02/13 02:56:59;;;;;;;2.20;2.00;;;;;;;;;;4511234;28;20046;-58
2023/02/13 03:06:51;;;;;;;2.47;2.08;;;;;;;;;;4506265;28;21063;-58
2023/02/13 03:14:03;;;;;;;2.05;1.88;;;;;;;;;;4507613;28;20042;-58
2023/02/13 03:23:56;;;;;;;1.80;1.70;;;;;;;;;;4505422;28;20597;-57
2023/02/13 03:26:31;;;;;;;1.70;1.60;;;;;;;;;;4506815;28;20088;-58
2023/02/13 03:31:35;;;;;;;1.88;1.70;;;;;;;;;;4515933;28;20038;-57
2023/02/13 03:33:49;;;;;;;1.88;1.70;;;;;;;;;;4506432;28;20036;-57
2023/02/13 03:38:31;;;;;;;2.20;1.98;;;;;;;;;;4505161;28;20684;-57
2023/02/13 03:43:16;;;;;;;1.85;1.65;;;;;;;;;;4509563;28;20054;-57
2023/02/13 03:48:00;;;;;;;1.80;1.48;;;;;;;;;;4508792;28;20038;-58
2023/02/13 03:50:11;;;;;;;1.65;1.50;;;;;;;;;;4509217;28;20639;-58
2023/02/13 03:52:28;;;;;;;1.73;1.60;;;;;;;;;;4509645;28;20040;-58
2023/02/13 03:59:43;;;;;;;1.90;1.70;;;;;;;;;;4507606;28;20038;-57
2023/02/13 04:02:00;;;;;;;1.80;1.70;;;;;;;;;;4508365;28;20034;-58
2023/02/13 04:04:20;;;;;;;1.83;1.70;;;;;;;;;;4507710;28;20705;-57
2023/02/13 04:06:35;;;;;;;1.67;1.58;;;;;;;;;;4509343;28;21374;-57
2023/02/13 04:08:45;;;;;;;1.55;1.40;;;;;;;;;;4507739;28;20068;-57
2023/02/13 04:11:05;;;;;;;1.40;1.30;;;;;;;;;;4509032;28;20036;-58
2023/02/13 04:13:25;;;;;;;1.70;1.60;;;;;;;;;;4509546;28;20049;-58
2023/02/13 04:15:37;;;;;;;1.23;1.13;;;;;;;;;;4509319;28;20045;-56
2023/02/13 04:18:06;;;;;;;1.10;1.05;;;;;;;;;;4508192;28;20038;-58
2023/02/13 04:20:17;;;;;;;1.30;1.20;;;;;;;;;;4509192;28;20029;-57
2023/02/13 04:22:27;;;;;;;1.50;1.40;;;;;;;;;;4508663;28;20042;-58
2023/02/13 04:24:37;;;;;;;1.50;1.40;;;;;;;;;;4507360;28;20061;-57
2023/02/13 04:26:48;;;;;;;1.35;1.25;;;;;;;;;;4506939;28;20487;-58
2023/02/13 04:28:58;;;;;;;1.40;1.30;;;;;;;;;;4507367;28;20133;-57
2023/02/13 04:31:08;;;;;;;1.20;1.10;;;;;;;;;;4508317;28;20840;-58
2023/02/13 04:33:19;;;;;;;1.30;1.20;;;;;;;;;;4508220;28;20046;-57
2023/02/13 04:35:29;;;;;;;1.20;1.10;;;;;;;;;;4507831;28;20168;-57
2023/02/13 04:37:39;;;;;;;1.08;0.93;;;;;;;;;;4509364;28;20026;-57
2023/02/13 04:39:50;;;;;;;0.88;0.88;;;;;;;;;;4506381;28;20038;-58
2023/02/13 04:42:00;;;;;;;0.80;0.80;;;;;;;;;;4507374;28;20037;-58
2023/02/13 04:44:10;;;;;;;1.00;0.90;;;;;;;;;;4517406;28;20091;-58
2023/02/13 04:46:21;;;;;;;0.80;0.80;;;;;;;;;;4507850;28;20053;-57
2023/02/13 04:48:31;;;;;;;1.08;0.98;;;;;;;;;;4507127;28;20037;-58
2023/02/13 04:50:41;;;;;;;0.73;0.73;;;;;;;;;;4507201;28;20041;-58
2023/02/13 04:52:55;;;;;;;0.80;0.80;;;;;;;;;;4506368;28;20099;-57
2023/02/13 04:55:06;;;;;;;0.90;0.90;;;;;;;;;;4507413;28;20041;-57
2023/02/13 04:57:16;;;;;;;0.80;0.80;;;;;;;;;;4507316;28;20037;-58
2023/02/13 04:59:26;;;;;;;1.00;0.90;;;;;;;;;;4506239;28;20080;-59
2023/02/13 05:01:37;;;;;;;0.68;0.68;;;;;;;;;;4509276;28;20037;-57
2023/02/13 05:03:47;;;;;;;0.70;0.70;;;;;;;;;;4507659;28;20564;-57
2023/02/13 05:05:57;;;;;;;1.40;1.17;;;;;;;;;;4507644;28;20033;-57
2023/02/13 05:08:08;;;;;;;0.80;0.80;;;;;;;;;;4507183;28;20046;-58
2023/02/13 05:10:18;;;;;;;1.00;0.90;;;;;;;;;;4507237;28;20041;-57
2023/02/13 05:12:28;;;;;;;0.98;0.90;;;;;;;;;;4508410;28;20061;-58
2023/02/13 05:14:39;;;;;;;3.15;2.88;;;;;;;;;;4507800;28;20185;-58
2023/02/13 05:16:49;;;;;;;2.65;2.45;;;;;;;;;;4508025;28;20040;-57
2023/02/13 05:18:59;;;;;;;1.63;1.52;;;;;;;;;;4507010;28;20398;-58
2023/02/13 05:23:39;;;;;;;0.55;0.55;;;;;;;;;;4508254;28;20034;-56
2023/02/13 05:25:49;;;;;;;0.80;0.80;;;;;;;;;;4508818;28;20042;-58
2023/02/13 05:27:59;;;;;;;0.65;0.65;;;;;;;;;;4507916;28;20044;-58
2023/02/13 05:30:10;;;;;;;1.10;1.00;;;;;;;;;;4521345;28;20044;-58
2023/02/13 05:32:20;;;;;;;1.20;1.10;;;;;;;;;;4507607;28;20061;-58
2023/02/13 05:34:31;;;;;;;0.70;0.65;;;;;;;;;;4507148;28;20084;-57
2023/02/13 05:36:41;;;;;;;0.60;0.60;;;;;;;;;;4508342;28;20387;-57
2023/02/13 05:38:51;;;;;;;0.50;0.50;;;;;;;;;;4517164;28;20049;-57
2023/02/13 05:41:02;;;;;;;0.40;0.40;;;;;;;;;;4509658;28;20168;-58
2023/02/13 05:43:12;;;;;;;0.50;0.50;;;;;;;;;;4508047;28;20037;-57
2023/02/13 05:45:22;;;;;;;0.40;0.40;;;;;;;;;;4516243;28;20041;-57
2023/02/13 05:47:32;;;;;;;0.65;0.43;;;;;;;;;;4509452;28;20033;-58
2023/02/13 05:49:43;;;;;;;0.43;0.43;;;;;;;;;;4509178;28;20771;-57
2023/02/13 05:51:53;;;;;;;0.50;0.50;;;;;;;;;;4510982;28;20588;-57
2023/02/13 05:54:04;;;;;;;0.40;0.40;;;;;;;;;;4508208;28;20619;-58
2023/02/13 05:56:14;;;;;;;0.40;0.40;;;;;;;;;;4506352;28;20052;-58
2023/02/13 05:58:24;;;;;;;0.32;0.32;;;;;;;;;;4506313;28;20049;-58
2023/02/13 06:00:35;;;;;;;0.43;0.43;;;;;;;;;;4506241;28;20029;-57
2023/02/13 06:02:45;;;;;;;0.30;0.30;;;;;;;;;;4506618;28;20076;-59
2023/02/13 06:04:55;;;;;;;0.47;0.47;;;;;;;;;;4505218;28;20037;-57
2023/02/13 06:07:05;;;;;;;0.40;0.40;;;;;;;;;;4506595;28;20048;-57
2023/02/13 06:09:16;;;;;;;0.40;0.40;;;;;;;;;;4506555;28;20124;-58
2023/02/13 06:11:26;;;;;;;0.30;0.30;;;;;;;;;;4510930;28;20081;-57
2023/02/13 06:13:39;;;;;;;0.35;0.35;;;;;;;;;;4506856;28;20040;-59
2023/02/13 06:15:49;;;;;;;0.30;0.30;;;;;;;;;;4507100;28;20561;-58
2023/02/13 06:18:00;;;;;;;0.30;0.30;;;;;;;;;;4505268;28;20632;-57
2023/02/13 06:20:10;;;;;;;0.40;0.40;;;;;;;;;;4506950;28;20029;-58
2023/02/13 06:22:20;;;;;;;0.40;0.40;;;;;;;;;;4509898;28;20133;-57
2023/02/13 06:24:31;;;;;;;0.32;0.32;;;;;;;;;;4505515;28;20452;-58
2023/02/13 06:26:41;;;;;;;0.57;0.50;;;;;;;;;;4506886;28;20038;-57
2023/02/13 06:28:51;;;;;;;0.32;0.32;;;;;;;;;;4505698;28;20299;-57
2023/02/13 06:31:02;;;;;;;0.40;0.40;;;;;;;;;;4506899;28;20146;-58
2023/02/13 06:33:12;;;;;;;0.30;0.30;;;;;;;;;;4508234;28;20038;-58
2023/02/13 06:35:22;;;;;;;0.20;0.20;;;;;;;;;;4506758;28;20046;-58
2023/02/13 06:37:33;;;;;;;0.40;0.40;;;;;;;;;;4514558;28;20033;-58
2023/02/13 06:39:44;;;;;;;0.30;0.30;;;;;;;;;;4509341;28;20033;-58
2023/02/13 06:41:54;;;;;;;0.40;0.40;;;;;;;;;;4506105;28;20132;-58
2023/02/13 06:44:04;;;;;;;0.30;0.30;;;;;;;;;;4505846;28;20030;-58
2023/02/13 06:46:15;;;;;;;0.40;0.40;;;;;;;;;;4505699;28;20641;-57
2023/02/13 06:48:25;;;;;;;0.40;0.40;;;;;;;;;;4506720;28;20063;-57
2023/02/13 06:50:35;;;;;;;0.40;0.40;;;;;;;;;;4506032;28;20079;-58
2023/02/13 06:52:46;;;;;;;0.95;0.50;;;;;;;;;;4506973;28;20041;-58
2023/02/13 06:54:57;;;;;;;0.30;0.30;;;;;;;;;;4505115;28;20580;-58
2023/02/13 06:57:07;;;;;;;0.50;0.50;;;;;;;;;;4504565;28;20057;-59
2023/02/13 06:59:17;;;;;;;0.40;0.40;;;;;;;;;;4503430;28;20042;-58
2023/02/13 07:01:28;;;;;;;0.30;0.30;;;;;;;;;;4506396;28;20034;-58
2023/02/13 07:03:38;;;;;;;0.38;0.38;;;;;;;;;;4504657;28;20044;-58
2023/02/13 07:05:50;;;;;;;0.30;0.30;;;;;;;;;;4505833;28;20061;-59
2023/02/13 07:08:01;;;;;;;1.15;0.40;;;;;;;;;;4507300;28;20042;-58
2023/02/13 07:10:12;;;;;;;0.45;0.38;;;;;;;;;;4505366;28;20033;-59
2023/02/13 07:12:22;;;;;;;0.40;0.40;;;;;;;;;;4504837;28;20754;-58
2023/02/13 07:14:33;;;;;;;0.45;0.40;;;;;;;;;;4492266;28;20061;-58
2023/02/13 07:16:43;;;;;;;0.40;0.40;;;;;;;;;;4513785;28;20034;-57
2023/02/13 07:18:53;;;;;;;0.40;0.40;;;;;;;;;;4518704;28;20049;-57
2023/02/13 07:21:04;;;;;;;0.40;0.40;;;;;;;;;;4508767;28;20030;-56
2023/02/13 07:23:14;;;;;;;0.40;0.40;;;;;;;;;;4507394;28;20108;-58
2023/02/13 07:25:25;;;;;;;0.30;0.30;;;;;;;;;;4510041;28;20033;-56
2023/02/13 07:27:35;;;;;;;0.40;0.40;;;;;;;;;;4507359;28;20629;-56
2023/02/13 07:29:45;;;;;;;0.68;0.40;;;;;;;;;;4517887;28;20490;-56
2023/02/13 07:31:56;;;;;;;0.40;0.40;;;;;;;;;;4507202;28;20145;-56
2023/02/13 07:34:06;;;;;;;0.40;0.40;;;;;;;;;;4507525;28;20065;-56
2023/02/13 07:36:17;;;;;;;0.40;0.40;;;;;;;;;;4517281;28;20042;-56
2023/02/13 07:38:27;;;;;;;0.50;0.50;;;;;;;;;;4504846;28;20046;-56
2023/02/13 07:40:37;;;;;;;0.70;0.70;;;;;;;;;;4507146;28;20034;-57
2023/02/13 07:42:47;;;;;;;0.75;0.57;;;;;;;;;;4508684;28;20038;-57
2023/02/13 07:44:58;;;;;;;0.45;0.45;;;;;;;;;;4513582;28;20056;-57
2023/02/13 07:47:09;;;;;;;0.50;0.50;;;;;;;;;;4507892;28;20112;-56
2023/02/13 07:49:19;;;;;;;0.60;0.60;;;;;;;;;;4507188;28;20041;-56
2023/02/13 07:51:29;;;;;;;0.60;0.60;;;;;;;;;;4505733;28;20046;-56
2023/02/13 07:53:39;;;;;;;0.60;0.60;;;;;;;;;;4506242;28;20030;-56
2023/02/13 07:55:50;;;;;;;0.60;0.60;;;;;;;;;;4508756;28;20763;-57
2023/02/13 07:58:00;;;;;;;0.55;0.55;;;;;;;;;;4518336;28;20041;-57
2023/02/13 08:00:11;;;;;;;0.50;0.50;;;;;;;;;;4507550;28;20045;-57
2023/02/13 08:02:24;;;;;;;0.50;0.50;;;;;;;;;;4504981;28;20912;-57
2023/02/13 08:04:34;;;;;;;0.50;0.50;;;;;;;;;;4521866;28;20041;-57
2023/02/13 08:06:44;;;;;;;0.50;0.50;;;;;;;;;;4506235;28;20030;-57
2023/02/13 08:13:59;;;;;;;0.50;0.50;;;;;;;;;;4506847;28;20091;-55
2023/02/13 08:16:09;;;;;;;0.40;0.40;;;;;;;;;;4507543;28;20118;-57
2023/02/13 08:18:20;;;;;;;0.38;0.38;;;;;;;;;;4515837;28;20051;-57
2023/02/13 08:20:30;;;;;;;0.50;0.50;;;;;;;;;;4507573;28;20034;-56
2023/02/13 08:22:40;;;;;;;0.50;0.50;;;;;;;;;;4514978;28;20053;-58
2023/02/13 08:24:50;;;;;;;0.50;0.50;;;;;;;;;;4506717;28;20235;-57
2023/02/13 08:27:01;;;;;;;0.88;0.60;;;;;;;;;;4514913;28;20033;-57
2023/02/13 08:29:11;;;;;;;0.52;0.52;;;;;;;;;;4506308;28;20522;-57
2023/02/13 08:31:22;;;;;;;0.40;0.40;;;;;;;;;;4509870;28;20037;-57
2023/02/13 08:33:32;;;;;;;0.40;0.40;;;;;;;;;;4507328;28;20042;-57
2023/02/13 08:35:42;;;;;;;0.50;0.50;;;;;;;;;;4505760;28;20053;-58
2023/02/13 08:37:53;;;;;;;0.60;0.60;;;;;;;;;;4506204;28;20566;-57
2023/02/13 08:40:03;;;;;;;0.50;0.50;;;;;;;;;;4506957;28;20045;-57
2023/02/13 08:42:14;;;;;;;0.93;0.50;;;;;;;;;;4505716;28;20091;-57
2023/02/13 08:44:24;;;;;;;0.43;0.43;;;;;;;;;;4505194;28;20047;-57
2023/02/13 08:46:34;;;;;;;0.50;0.50;;;;;;;;;;4506231;28;20057;-58
2023/02/13 08:48:45;;;;;;;0.50;0.50;;;;;;;;;;4506255;28;20053;-57
2023/02/13 08:50:55;;;;;;;0.77;0.50;;;;;;;;;;4507447;28;20022;-58
2023/02/13 08:53:06;;;;;;;0.47;0.47;;;;;;;;;;4514937;28;20390;-58
2023/02/13 08:55:16;;;;;;;0.50;0.50;;;;;;;;;;4506489;28;20050;-58
2023/02/13 08:57:26;;;;;;;0.50;0.50;;;;;;;;;;4506540;28;20042;-58
2023/02/13 08:59:36;;;;;;;0.60;0.60;;;;;;;;;;4507892;28;20038;-58
2023/02/13 09:01:47;;;;;;;0.40;0.40;;;;;;;;;;4506027;28;20037;-57
2023/02/13 09:03:57;;;;;;;0.45;0.45;;;;;;;;;;4506590;28;20064;-57
2023/02/13 09:06:08;;;;;;;0.60;0.60;;;;;;;;;;4507001;28;20038;-57
2023/02/13 09:08:18;;;;;;;0.63;0.63;;;;;;;;;;4507002;28;20092;-57
2023/02/13 09:10:29;;;;;;;0.60;0.60;;;;;;;;;;4521720;28;20506;-57
2023/02/13 09:12:40;;;;;;;1.27;0.70;;;;;;;;;;4507098;28;20072;-57
2023/02/13 09:14:51;;;;;;;0.65;0.60;;;;;;;;;;4504923;28;20044;-57
2023/02/13 09:17:01;;;;;;;0.93;0.93;;;;;;;;;;4506549;28;20022;-57
2023/02/13 09:19:12;;;;;;;0.80;0.80;;;;;;;;;;4514463;28;20049;-57
2023/02/13 09:21:25;;;;;;;0.70;0.70;;;;;;;;;;4506860;28;20048;-57
2023/02/13 09:23:36;;;;;;;0.80;0.80;;;;;;;;;;4520885;28;20068;-59
2023/02/13 09:25:47;;;;;;;0.80;0.80;;;;;;;;;;4506408;28;20052;-57
2023/02/13 09:27:58;;;;;;;0.80;0.70;;;;;;;;;;4509911;28;20045;-57
2023/02/13 09:30:09;;;;;;;0.80;0.80;;;;;;;;;;4505681;28;20073;-57
2023/02/13 09:32:19;;;;;;;0.80;0.80;;;;;;;;;;4506359;28;20145;-57
2023/02/13 09:34:29;;;;;;;0.70;0.70;;;;;;;;;;4514357;28;20052;-57
2023/02/13 09:36:40;;;;;;;0.90;0.85;;;;;;;;;;4505185;28;20034;-57
2023/02/13 09:38:51;;;;;;;0.88;0.88;;;;;;;;;;4504737;28;20096;-57
2023/02/13 09:41:04;;;;;;;0.70;0.70;;;;;;;;;;4504844;28;21005;-57
2023/02/13 09:43:17;;;;;;;0.88;0.88;;;;;;;;;;4507111;28;20112;-57
2023/02/13 09:45:27;;;;;;;0.60;0.60;;;;;;;;;;4505255;28;20072;-57
2023/02/13 09:47:41;;;;;;;0.82;0.82;;;;;;;;;;4505368;28;20068;-57
2023/02/13 09:49:53;;;;;;;0.70;0.70;;;;;;;;;;4515840;28;20038;-58
2023/02/13 09:52:04;;;;;;;0.70;0.70;;;;;;;;;;4505161;28;21476;-57
2023/02/13 09:54:15;;;;;;;0.70;0.70;;;;;;;;;;4505394;28;20046;-57
2023/02/13 09:56:25;;;;;;;0.60;0.60;;;;;;;;;;4507426;28;20136;-57
2023/02/13 09:58:44;;;;;;;0.70;0.70;;;;;;;;;;4507274;28;20034;-57
2023/02/13 10:00:56;;;;;;;0.80;0.80;;;;;;;;;;4505831;28;20041;-57
2023/02/13 10:03:15;;;;;;;0.80;0.80;;;;;;;;;;4505985;28;20029;-58
2023/02/13 10:05:44;;;;;;;0.82;0.80;;;;;;;;;;4504582;28;20034;-57
2023/02/13 10:08:08;;;;;;;0.80;0.80;;;;;;;;;;4505260;28;20040;-59
2023/02/13 10:10:43;;;;;;;1.15;0.90;;;;;;;;;;4505637;28;20037;-59
2023/02/13 10:13:03;;;;;;;0.90;0.90;;;;;;;;;;4508426;28;20037;-58
2023/02/13 10:15:20;;;;;;;0.80;0.80;;;;;;;;;;4506652;28;20115;-58
2023/02/13 10:17:30;;;;;;;1.00;0.90;;;;;;;;;;4507381;28;20548;-58
2023/02/13 10:19:43;;;;;;;1.00;0.90;;;;;;;;;;4505209;28;20304;-58
2023/02/13 10:21:56;;;;;;;0.90;0.90;;;;;;;;;;4506042;28;20125;-57
2023/02/13 10:24:30;;;;;;;0.85;0.85;;;;;;;;;;4505533;28;20042;-57
2023/02/13 10:26:41;;;;;;;0.80;0.80;;;;;;;;;;4505320;28;20121;-58
2023/02/13 10:31:27;;;;;;;0.90;0.90;;;;;;;;;;4506022;28;20037;-57
2023/02/13 10:33:40;;;;;;;0.77;0.77;;;;;;;;;;4505563;28;20073;-57
2023/02/13 10:35:53;;;;;;;0.85;0.85;;;;;;;;;;4504891;28;20585;-58
2023/02/13 10:38:11;;;;;;;0.85;0.85;;;;;;;;;;4513664;28;20616;-58
2023/02/13 10:40:23;;;;;;;0.85;0.85;;;;;;;;;;4506935;28;20034;-57
2023/02/13 10:42:42;;;;;;;0.80;0.80;;;;;;;;;;4505017;28;20029;-57
2023/02/13 10:45:02;;;;;;;1.05;0.90;;;;;;;;;;4505914;28;20048;-57
2023/02/13 10:47:30;;;;;;;0.90;0.90;;;;;;;;;;4505264;28;20045;-57
2023/02/13 10:49:46;;;;;;;0.82;0.82;;;;;;;;;;4505878;28;20042;-57
2023/02/13 10:52:15;;;;;;;1.10;1.00;;;;;;;;;;4515700;28;20750;-57
2023/02/13 10:54:45;;;;;;;1.10;1.00;;;;;;;;;;4508369;28;20597;-57
2023/02/13 10:57:04;;;;;;;0.80;0.80;;;;;;;;;;4509277;28;20657;-57
2023/02/13 10:59:26;;;;;;;1.00;1.00;;;;;;;;;;4508627;28;20078;-57
2023/02/13 11:01:46;;;;;;;0.80;0.80;;;;;;;;;;4508029;28;20111;-57
2023/02/13 11:04:05;;;;;;;0.80;0.80;;;;;;;;;;4506263;28;20046;-58
2023/02/13 11:06:16;;;;;;;1.10;1.00;;;;;;;;;;4508098;28;20037;-57
2023/02/13 11:08:26;;;;;;;0.80;0.80;;;;;;;;;;4507747;28;20988;-57
2023/02/13 11:10:39;;;;;;;0.60;0.60;;;;;;;;;;4508336;28;20096;-57
2023/02/13 11:12:49;;;;;;;0.90;0.90;;;;;;;;;;4507454;28;20394;-58
2023/02/13 11:15:01;;;;;;;0.88;0.88;;;;;;;;;;4510166;28;20128;-57
2023/02/13 11:17:16;;;;;;;0.80;0.80;;;;;;;;;;4508923;28;20568;-58
2023/02/13 11:19:37;;;;;;;0.73;0.73;;;;;;;;;;4508771;28;20637;-57
2023/02/13 11:21:52;;;;;;;0.80;0.80;;;;;;;;;;4512854;28;20768;-57
2023/02/13 11:24:02;;;;;;;0.80;0.80;;;;;;;;;;4508086;28;20041;-57
2023/02/13 11:26:31;;;;;;;0.98;0.98;;;;;;;;;;4506311;28;20438;-57
2023/02/13 11:28:50;;;;;;;0.73;0.73;;;;;;;;;;4507578;28;20619;-57
2023/02/13 11:31:11;;;;;;;0.75;0.75;;;;;;;;;;4511468;28;20118;-58
2023/02/13 11:33:25;;;;;;;0.90;0.90;;;;;;;;;;4507231;28;20172;-57
2023/02/13 11:35:36;;;;;;;0.90;0.90;;;;;;;;;;4507687;28;20140;-57
2023/02/13 11:37:46;;;;;;;0.80;0.80;;;;;;;;;;4507934;28;20042;-58
2023/02/13 11:39:57;;;;;;;0.93;0.80;;;;;;;;;;4507867;28;20541;-57
2023/02/13 11:42:12;;;;;;;0.70;0.70;;;;;;;;;;4493854;28;20570;-58
2023/02/13 11:44:27;;;;;;;0.90;0.90;;;;;;;;;;4508724;28;20038;-57
2023/02/13 11:46:48;;;;;;;0.80;0.80;;;;;;;;;;4523196;28;20041;-56
2023/02/13 11:49:00;;;;;;;0.80;0.80;;;;;;;;;;4508302;28;20040;-57
2023/02/13 11:51:11;;;;;;;0.80;0.80;;;;;;;;;;4507215;28;20048;-57
2023/02/13 11:53:22;;;;;;;1.10;1.00;;;;;;;;;;4512248;28;20100;-57
2023/02/13 11:55:34;;;;;;;1.08;1.08;;;;;;;;;;4508155;28;20054;-57
2023/02/13 11:57:54;;;;;;;1.13;1.02;;;;;;;;;;4505416;28;20034;-57
2023/02/13 12:00:23;;;;;;;1.10;1.00;;;;;;;;;;4510121;28;20039;-57
2023/02/13 12:02:45;;;;;;;0.95;0.95;;;;;;;;;;4506563;28;20123;-57
2023/02/13 12:05:11;;;;;;;0.95;0.95;;;;;;;;;;4507357;28;20037;-57
2023/02/13 12:07:32;;;;;;;1.20;1.10;;;;;;;;;;4507870;28;20623;-57
2023/02/13 12:09:43;;;;;;;1.13;1.02;;;;;;;;;;4506434;28;20135;-57
2023/02/13 12:11:55;;;;;;;1.02;1.00;;;;;;;;;;4507680;28;20042;-57
2023/02/13 12:14:10;;;;;;;1.13;1.10;;;;;;;;;;4507369;28;20050;-58
2023/02/13 12:16:32;;;;;;;1.10;1.00;;;;;;;;;;4508496;28;20115;-57
2023/02/13 12:18:45;;;;;;;1.15;1.05;;;;;;;;;;4506418;28;20042;-57
2023/02/13 12:20:58;;;;;;;1.20;1.10;;;;;;;;;;4507151;28;20087;-57
2023/02/13 12:23:19;;;;;;;1.05;1.00;;;;;;;;;;4509475;28;20052;-58
2023/02/13 12:25:32;;;;;;;0.93;0.93;;;;;;;;;;4508216;28;20528;-57
2023/02/13 12:27:48;;;;;;;1.23;1.13;;;;;;;;;;4506312;28;20045;-57
2023/02/13 12:30:08;;;;;;;1.15;1.05;;;;;;;;;;4506829;28;20462;-57
2023/02/13 12:32:19;;;;;;;1.30;1.20;;;;;;;;;;4508074;28;20096;-57
2023/02/13 12:34:59;;;;;;;1.05;1.05;;;;;;;;;;4506482;28;20112;-57
2023/02/13 12:37:13;;;;;;;1.08;1.00;;;;;;;;;;4477755;28;20057;-57
2023/02/13 12:39:33;;;;;;;1.30;1.20;;;;;;;;;;4507568;28;20042;-55
2023/02/13 12:41:46;;;;;;;1.00;0.98;;;;;;;;;;4507851;28;20263;-57
2023/02/13 12:44:03;;;;;;;1.20;1.10;;;;;;;;;;4506542;28;20045;-58
2023/02/13 12:46:29;;;;;;;1.20;1.10;;;;;;;;;;4507669;28;20072;-57
2023/02/13 12:48:55;;;;;;;1.27;1.17;;;;;;;;;;4507410;28;20874;-58
2023/02/13 12:51:24;;;;;;;1.10;1.10;;;;;;;;;;4506805;28;20033;-57
2023/02/13 12:53:43;;;;;;;1.00;1.00;;;;;;;;;;4506865;28;20797;-56
2023/02/13 12:56:12;;;;;;;1.20;1.10;;;;;;;;;;4507133;28;20136;-57
2023/02/13 12:58:28;;;;;;;1.00;1.00;;;;;;;;;;4507203;28;21030;-58
2023/02/13 13:00:48;;;;;;;1.20;1.10;;;;;;;;;;4507409;28;20096;-58
2023/02/13 13:03:01;;;;;;;1.20;1.10;;;;;;;;;;4522794;28;20044;-62
2023/02/13 13:05:37;;;;;;;1.10;1.00;;;;;;;;;;4506450;28;20601;-58
2023/02/13 13:08:07;;;;;;;1.00;1.00;;;;;;;;;;4505663;28;20640;-57
2023/02/13 13:10:37;;;;;;;1.13;1.02;;;;;;;;;;4503089;28;20046;-56
2023/02/13 13:13:06;;;;;;;1.30;1.20;;;;;;;;;;4507533;28;20541;-58
2023/02/13 13:15:27;;;;;;;1.45;1.35;;;;;;;;;;4506509;28;20116;-57
2023/02/13 13:17:37;;;;;;;1.10;1.00;;;;;;;;;;4505269;28;20121;-57
2023/02/13 13:20:07;;;;;;;1.10;1.00;;;;;;;;;;4507130;28;20101;-57
2023/02/13 13:22:20;;;;;;;1.20;1.10;;;;;;;;;;4506688;28;20033;-57
2023/02/13 13:24:45;;;;;;;1.00;1.00;;;;;;;;;;4506430;28;20617;-57
2023/02/13 13:26:57;;;;;;;1.17;1.10;;;;;;;;;;4505923;28;20030;-57
2023/02/13 13:29:23;;;;;;;1.30;1.20;;;;;;;;;;4506617;28;20120;-58
2023/02/13 13:31:34;;;;;;;1.13;1.05;;;;;;;;;;4505559;28;20038;-57
2023/02/13 13:33:45;;;;;;;1.30;1.20;;;;;;;;;;4506329;28;20037;-57
2023/02/13 13:36:02;;;;;;;1.23;1.13;;;;;;;;;;4505897;28;21054;-58
2023/02/13 13:38:45;;;;;;;1.20;1.10;;;;;;;;;;4503484;28;20030;-57
2023/02/13 13:41:16;;;;;;;1.20;1.10;;;;;;;;;;4484617;28;20060;-57
2023/02/13 13:43:33;;;;;;;0.98;0.98;;;;;;;;;;4507044;28;20042;-57
2023/02/13 13:45:50;;;;;;;1.33;1.23;;;;;;;;;;4506040;28;20061;-57
2023/02/13 13:48:06;;;;;;;1.10;1.00;;;;;;;;;;4505812;28;20050;-56
2023/02/13 13:50:27;;;;;;;1.00;1.00;;;;;;;;;;4506899;28;20112;-58
2023/02/13 13:52:37;;;;;;;1.30;1.20;;;;;;;;;;4506452;28;20128;-57
2023/02/13 13:54:50;;;;;;;1.20;1.10;;;;;;;;;;4505670;28;20088;-58
2023/02/13 13:57:03;;;;;;;1.45;1.20;;;;;;;;;;4504471;28;20049;-57
2023/02/13 13:59:17;;;;;;;1.10;1.00;;;;;;;;;;4507519;28;20042;-55
2023/02/13 14:01:29;;;;;;;1.02;1.00;;;;;;;;;;4505702;28;20061;-56
2023/02/13 14:03:41;;;;;;;1.23;1.13;;;;;;;;;;4507140;28;20043;-57
2023/02/13 14:05:58;;;;;;;1.20;1.10;;;;;;;;;;4506087;28;20076;-57
2023/02/13 14:08:28;;;;;;;1.20;1.10;;;;;;;;;;4506332;28;20129;-57
2023/02/13 14:10:50;;;;;;;1.48;1.38;;;;;;;;;;4505879;28;20044;-57
2023/02/13 14:13:06;;;;;;;1.30;1.10;;;;;;;;;;4506821;28;20045;-57